sensor_id;sensor_type;location;lat;lon;timestamp;P1;durP1;ratioP1;P2;durP2;ratioP2
71610;SDS011;59459;51.172;6.682;2023-05-02T00:00:01;30.97;;;13.43;;
71610;SDS011;59459;51.172;6.682;2023-05-02T00:02:27;29.15;;;13.60;;
71610;SDS011;59459;51.172;6.682;2023-05-02T00:04:56;24.63;;;12.10;;
71610;SDS011;59459;51.172;6.682;2023-05-02T00:07:21;28.23;;;13.18;;
71610;SDS011;59459;51.172;6.682;2023-05-02T00:09:46;29.77;;;13.13;;
71610;SDS011;59459;51.172;6.682;2023-05-02T00:12:12;30.57;;;13.83;;
71610;SDS011;59459;51.172;6.682;2023-05-02T00:14:37;28.77;;;14.30;;
71610;SDS011;59459;51.172;6.682;2023-05-02T00:17:02;33.93;;;14.27;;
71610;SDS011;59459;51.172;6.682;2023-05-02T00:19:27;31.87;;;13.93;;
71610;SDS011;59459;51.172;6.682;2023-05-02T00:21:53;31.13;;;13.33;;
71610;SDS011;59459;51.172;6.682;2023-05-02T00:24:18;27.97;;;12.40;;
71610;SDS011;59459;51.172;6.682;2023-05-02T00:26:43;29.57;;;13.07;;
71610;SDS011;59459;51.172;6.682;2023-05-02T00:29:08;32.13;;;14.33;;
71610;SDS011;59459;51.172;6.682;2023-05-02T00:31:34;28.47;;;12.93;;
71610;SDS011;59459;51.172;6.682;2023-05-02T00:33:59;27.87;;;12.40;;
71610;SDS011;59459;51.172;6.682;2023-05-02T00:36:25;29.27;;;12.57;;
71610;SDS011;59459;51.172;6.682;2023-05-02T00:38:51;30.67;;;13.77;;
71610;SDS011;59459;51.172;6.682;2023-05-02T00:41:16;29.57;;;12.50;;
71610;SDS011;59459;51.172;6.682;2023-05-02T00:43:41;32.13;;;13.00;;
71610;SDS011;59459;51.172;6.682;2023-05-02T00:46:07;27.50;;;12.67;;
71610;SDS011;59459;51.172;6.682;2023-05-02T00:48:32;33.13;;;14.20;;
71610;SDS011;59459;51.172;6.682;2023-05-02T00:50:59;31.37;;;13.30;;
71610;SDS011;59459;51.172;6.682;2023-05-02T00:53:26;31.42;;;13.02;;
71610;SDS011;59459;51.172;6.682;2023-05-02T00:55:52;31.80;;;13.20;;
71610;SDS011;59459;51.172;6.682;2023-05-02T00:58:18;33.67;;;14.88;;
71610;SDS011;59459;51.172;6.682;2023-05-02T01:06:18;36.10;;;13.70;;
71610;SDS011;59459;51.172;6.682;2023-05-02T01:14:04;36.35;;;13.93;;
71610;SDS011;59459;51.172;6.682;2023-05-02T01:16:29;36.30;;;14.35;;
71610;SDS011;59459;51.172;6.682;2023-05-02T01:18:55;35.83;;;14.37;;
71610;SDS011;59459;51.172;6.682;2023-05-02T01:21:22;35.60;;;14.43;;
71610;SDS011;59459;51.172;6.682;2023-05-02T01:23:59;37.73;;;14.83;;
71610;SDS011;59459;51.172;6.682;2023-05-02T01:29:02;35.17;;;14.57;;
71610;SDS011;59459;51.172;6.682;2023-05-02T01:31:28;38.08;;;14.35;;
71610;SDS011;59459;51.172;6.682;2023-05-02T01:33:55;40.10;;;15.70;;
71610;SDS011;59459;51.172;6.682;2023-05-02T01:36:22;34.17;;;14.82;;
71610;SDS011;59459;51.172;6.682;2023-05-02T01:38:50;35.60;;;14.60;;
71610;SDS011;59459;51.172;6.682;2023-05-02T01:41:17;38.67;;;15.70;;
71610;SDS011;59459;51.172;6.682;2023-05-02T01:43:42;36.42;;;14.25;;
71610;SDS011;59459;51.172;6.682;2023-05-02T01:46:08;36.80;;;15.10;;
71610;SDS011;59459;51.172;6.682;2023-05-02T01:48:34;36.67;;;14.93;;
71610;SDS011;59459;51.172;6.682;2023-05-02T01:51:00;36.78;;;15.60;;
71610;SDS011;59459;51.172;6.682;2023-05-02T01:53:27;40.17;;;15.85;;
71610;SDS011;59459;51.172;6.682;2023-05-02T01:55:53;34.95;;;14.82;;
71610;SDS011;59459;51.172;6.682;2023-05-02T01:58:19;34.90;;;14.23;;
71610;SDS011;59459;51.172;6.682;2023-05-02T02:00:45;40.57;;;16.17;;
71610;SDS011;59459;51.172;6.682;2023-05-02T02:03:11;37.42;;;14.80;;
71610;SDS011;59459;51.172;6.682;2023-05-02T02:05:40;36.88;;;15.18;;
71610;SDS011;59459;51.172;6.682;2023-05-02T02:08:06;31.83;;;15.03;;
71610;SDS011;59459;51.172;6.682;2023-05-02T02:10:34;35.20;;;14.73;;
71610;SDS011;59459;51.172;6.682;2023-05-02T02:13:03;37.00;;;14.63;;
71610;SDS011;59459;51.172;6.682;2023-05-02T02:15:31;37.58;;;14.77;;
71610;SDS011;59459;51.172;6.682;2023-05-02T02:20:29;36.97;;;14.63;;
71610;SDS011;59459;51.172;6.682;2023-05-02T02:22:56;37.90;;;15.52;;
71610;SDS011;59459;51.172;6.682;2023-05-02T02:25:21;38.17;;;15.02;;
71610;SDS011;59459;51.172;6.682;2023-05-02T02:27:47;38.90;;;13.43;;
71610;SDS011;59459;51.172;6.682;2023-05-02T02:30:13;35.20;;;13.80;;
71610;SDS011;59459;51.172;6.682;2023-05-02T02:32:41;34.80;;;14.23;;
71610;SDS011;59459;51.172;6.682;2023-05-02T02:35:06;39.63;;;13.90;;
71610;SDS011;59459;51.172;6.682;2023-05-02T02:37:34;32.70;;;13.35;;
71610;SDS011;59459;51.172;6.682;2023-05-02T02:45:21;30.45;;;12.68;;
71610;SDS011;59459;51.172;6.682;2023-05-02T02:50:27;30.17;;;11.93;;
71610;SDS011;59459;51.172;6.682;2023-05-02T02:52:55;33.67;;;12.73;;
71610;SDS011;59459;51.172;6.682;2023-05-02T02:55:28;31.50;;;12.97;;
71610;SDS011;59459;51.172;6.682;2023-05-02T02:58:06;31.98;;;12.27;;
71610;SDS011;59459;51.172;6.682;2023-05-02T03:00:35;36.55;;;13.88;;
71610;SDS011;59459;51.172;6.682;2023-05-02T03:03:00;29.00;;;12.10;;
71610;SDS011;59459;51.172;6.682;2023-05-02T03:05:25;29.50;;;11.67;;
71610;SDS011;59459;51.172;6.682;2023-05-02T03:07:51;31.40;;;11.57;;
71610;SDS011;59459;51.172;6.682;2023-05-02T03:10:16;31.95;;;11.80;;
71610;SDS011;59459;51.172;6.682;2023-05-02T03:12:42;33.40;;;11.90;;
71610;SDS011;59459;51.172;6.682;2023-05-02T03:17:38;30.15;;;10.60;;
71610;SDS011;59459;51.172;6.682;2023-05-02T03:20:04;28.83;;;10.63;;
71610;SDS011;59459;51.172;6.682;2023-05-02T03:22:29;31.08;;;11.82;;
71610;SDS011;59459;51.172;6.682;2023-05-02T03:24:55;30.77;;;11.10;;
71610;SDS011;59459;51.172;6.682;2023-05-02T03:27:20;28.73;;;11.37;;
71610;SDS011;59459;51.172;6.682;2023-05-02T03:29:46;28.00;;;11.07;;
71610;SDS011;59459;51.172;6.682;2023-05-02T03:32:11;28.42;;;10.90;;
71610;SDS011;59459;51.172;6.682;2023-05-02T03:34:37;27.60;;;10.90;;
71610;SDS011;59459;51.172;6.682;2023-05-02T03:37:05;30.23;;;10.33;;
71610;SDS011;59459;51.172;6.682;2023-05-02T03:39:30;29.38;;;9.73;;
71610;SDS011;59459;51.172;6.682;2023-05-02T03:41:55;24.60;;;9.40;;
71610;SDS011;59459;51.172;6.682;2023-05-02T03:44:21;34.53;;;11.67;;
71610;SDS011;59459;51.172;6.682;2023-05-02T03:46:46;24.77;;;9.43;;
71610;SDS011;59459;51.172;6.682;2023-05-02T03:49:12;25.88;;;9.45;;
71610;SDS011;59459;51.172;6.682;2023-05-02T03:51:37;24.83;;;9.40;;
71610;SDS011;59459;51.172;6.682;2023-05-02T03:54:03;32.63;;;9.47;;
71610;SDS011;59459;51.172;6.682;2023-05-02T03:56:28;26.30;;;10.05;;
71610;SDS011;59459;51.172;6.682;2023-05-02T03:58:53;26.33;;;9.47;;
71610;SDS011;59459;51.172;6.682;2023-05-02T04:01:18;27.77;;;9.70;;
71610;SDS011;59459;51.172;6.682;2023-05-02T04:03:44;25.33;;;9.07;;
71610;SDS011;59459;51.172;6.682;2023-05-02T04:06:09;25.73;;;9.57;;
71610;SDS011;59459;51.172;6.682;2023-05-02T04:08:34;25.07;;;9.20;;
71610;SDS011;59459;51.172;6.682;2023-05-02T04:11:00;23.77;;;9.40;;
71610;SDS011;59459;51.172;6.682;2023-05-02T04:13:26;27.27;;;9.10;;
71610;SDS011;59459;51.172;6.682;2023-05-02T04:15:53;26.73;;;9.02;;
71610;SDS011;59459;51.172;6.682;2023-05-02T04:18:18;27.50;;;10.17;;
71610;SDS011;59459;51.172;6.682;2023-05-02T04:20:43;26.70;;;9.83;;
71610;SDS011;59459;51.172;6.682;2023-05-02T04:23:09;29.50;;;9.48;;
71610;SDS011;59459;51.172;6.682;2023-05-02T04:25:34;23.00;;;8.63;;
71610;SDS011;59459;51.172;6.682;2023-05-02T04:27:59;26.00;;;8.57;;
71610;SDS011;59459;51.172;6.682;2023-05-02T04:30:25;22.37;;;8.43;;
71610;SDS011;59459;51.172;6.682;2023-05-02T04:32:50;22.90;;;8.03;;
71610;SDS011;59459;51.172;6.682;2023-05-02T04:35:16;22.13;;;8.13;;
71610;SDS011;59459;51.172;6.682;2023-05-02T04:37:41;23.90;;;8.57;;
71610;SDS011;59459;51.172;6.682;2023-05-02T04:40:07;23.80;;;8.17;;
71610;SDS011;59459;51.172;6.682;2023-05-02T04:42:33;23.60;;;8.88;;
71610;SDS011;59459;51.172;6.682;2023-05-02T04:44:58;24.23;;;8.27;;
71610;SDS011;59459;51.172;6.682;2023-05-02T04:47:23;26.53;;;8.13;;
71610;SDS011;59459;51.172;6.682;2023-05-02T04:49:48;19.67;;;8.53;;
71610;SDS011;59459;51.172;6.682;2023-05-02T04:52:13;18.10;;;7.53;;
71610;SDS011;59459;51.172;6.682;2023-05-02T04:54:39;21.33;;;8.33;;
71610;SDS011;59459;51.172;6.682;2023-05-02T04:57:04;22.83;;;7.80;;
71610;SDS011;59459;51.172;6.682;2023-05-02T04:59:31;24.83;;;7.82;;
71610;SDS011;59459;51.172;6.682;2023-05-02T05:01:57;22.53;;;8.03;;
71610;SDS011;59459;51.172;6.682;2023-05-02T05:04:23;23.20;;;7.73;;
71610;SDS011;59459;51.172;6.682;2023-05-02T05:06:48;23.20;;;8.32;;
71610;SDS011;59459;51.172;6.682;2023-05-02T05:09:14;25.47;;;8.87;;
71610;SDS011;59459;51.172;6.682;2023-05-02T05:11:39;23.65;;;8.75;;
71610;SDS011;59459;51.172;6.682;2023-05-02T05:14:06;20.57;;;7.37;;
71610;SDS011;59459;51.172;6.682;2023-05-02T05:16:32;20.57;;;8.80;;
71610;SDS011;59459;51.172;6.682;2023-05-02T05:18:57;24.97;;;8.70;;
71610;SDS011;59459;51.172;6.682;2023-05-02T05:21:22;25.20;;;8.93;;
71610;SDS011;59459;51.172;6.682;2023-05-02T05:23:47;21.50;;;7.60;;
71610;SDS011;59459;51.172;6.682;2023-05-02T05:26:13;24.33;;;8.77;;
71610;SDS011;59459;51.172;6.682;2023-05-02T05:28:39;21.70;;;7.88;;
71610;SDS011;59459;51.172;6.682;2023-05-02T05:31:05;23.97;;;8.87;;
71610;SDS011;59459;51.172;6.682;2023-05-02T05:33:31;22.15;;;7.75;;
71610;SDS011;59459;51.172;6.682;2023-05-02T05:36:01;29.80;;;10.23;;
71610;SDS011;59459;51.172;6.682;2023-05-02T05:38:27;26.30;;;8.73;;
71610;SDS011;59459;51.172;6.682;2023-05-02T05:40:52;22.17;;;7.73;;
71610;SDS011;59459;51.172;6.682;2023-05-02T05:43:17;25.00;;;8.17;;
71610;SDS011;59459;51.172;6.682;2023-05-02T05:45:42;23.30;;;7.70;;
71610;SDS011;59459;51.172;6.682;2023-05-02T05:48:08;24.30;;;7.90;;
71610;SDS011;59459;51.172;6.682;2023-05-02T05:50:33;25.53;;;9.30;;
71610;SDS011;59459;51.172;6.682;2023-05-02T05:52:58;25.07;;;8.60;;
71610;SDS011;59459;51.172;6.682;2023-05-02T05:55:23;28.83;;;8.60;;
71610;SDS011;59459;51.172;6.682;2023-05-02T05:57:48;23.27;;;8.47;;
71610;SDS011;59459;51.172;6.682;2023-05-02T06:00:14;24.23;;;8.80;;
71610;SDS011;59459;51.172;6.682;2023-05-02T06:02:39;23.87;;;8.00;;
71610;SDS011;59459;51.172;6.682;2023-05-02T06:05:05;24.70;;;7.93;;
71610;SDS011;59459;51.172;6.682;2023-05-02T06:07:30;23.08;;;8.90;;
71610;SDS011;59459;51.172;6.682;2023-05-02T06:09:55;24.40;;;8.70;;
71610;SDS011;59459;51.172;6.682;2023-05-02T06:12:20;22.50;;;7.47;;
71610;SDS011;59459;51.172;6.682;2023-05-02T06:14:45;20.93;;;8.47;;
71610;SDS011;59459;51.172;6.682;2023-05-02T06:17:11;22.67;;;6.90;;
71610;SDS011;59459;51.172;6.682;2023-05-02T06:19:36;16.10;;;5.60;;
71610;SDS011;59459;51.172;6.682;2023-05-02T06:22:01;13.57;;;4.83;;
71610;SDS011;59459;51.172;6.682;2023-05-02T06:24:26;11.47;;;3.60;;
71610;SDS011;59459;51.172;6.682;2023-05-02T06:26:51;11.43;;;3.80;;
71610;SDS011;59459;51.172;6.682;2023-05-02T06:29:17;7.63;;;2.93;;
71610;SDS011;59459;51.172;6.682;2023-05-02T06:31:42;7.60;;;2.90;;
71610;SDS011;59459;51.172;6.682;2023-05-02T06:34:07;8.70;;;2.43;;
71610;SDS011;59459;51.172;6.682;2023-05-02T06:36:33;9.17;;;2.90;;
71610;SDS011;59459;51.172;6.682;2023-05-02T06:38:58;6.60;;;2.17;;
71610;SDS011;59459;51.172;6.682;2023-05-02T06:41:23;10.97;;;3.20;;
71610;SDS011;59459;51.172;6.682;2023-05-02T06:43:48;6.67;;;2.17;;
71610;SDS011;59459;51.172;6.682;2023-05-02T06:46:14;8.73;;;3.03;;
71610;SDS011;59459;51.172;6.682;2023-05-02T06:48:39;7.40;;;2.37;;
71610;SDS011;59459;51.172;6.682;2023-05-02T06:51:04;7.53;;;2.23;;
71610;SDS011;59459;51.172;6.682;2023-05-02T06:53:29;8.37;;;2.90;;
71610;SDS011;59459;51.172;6.682;2023-05-02T06:55:55;5.60;;;2.27;;
71610;SDS011;59459;51.172;6.682;2023-05-02T06:58:20;9.83;;;2.80;;
71610;SDS011;59459;51.172;6.682;2023-05-02T07:00:46;6.43;;;2.20;;
71610;SDS011;59459;51.172;6.682;2023-05-02T07:03:12;6.38;;;2.38;;
71610;SDS011;59459;51.172;6.682;2023-05-02T07:05:37;8.70;;;2.03;;
71610;SDS011;59459;51.172;6.682;2023-05-02T07:08:03;6.33;;;2.10;;
71610;SDS011;59459;51.172;6.682;2023-05-02T07:10:28;7.38;;;2.22;;
71610;SDS011;59459;51.172;6.682;2023-05-02T07:12:53;8.43;;;2.40;;
71610;SDS011;59459;51.172;6.682;2023-05-02T07:15:19;8.10;;;1.90;;
71610;SDS011;59459;51.172;6.682;2023-05-02T07:17:44;5.30;;;2.07;;
71610;SDS011;59459;51.172;6.682;2023-05-02T07:20:11;7.40;;;2.33;;
71610;SDS011;59459;51.172;6.682;2023-05-02T07:22:36;5.03;;;2.00;;
71610;SDS011;59459;51.172;6.682;2023-05-02T07:25:02;6.90;;;2.43;;
71610;SDS011;59459;51.172;6.682;2023-05-02T07:27:27;6.07;;;1.80;;
71610;SDS011;59459;51.172;6.682;2023-05-02T07:29:52;6.43;;;2.20;;
71610;SDS011;59459;51.172;6.682;2023-05-02T07:32:18;5.53;;;2.10;;
71610;SDS011;59459;51.172;6.682;2023-05-02T07:34:45;6.78;;;2.30;;
71610;SDS011;59459;51.172;6.682;2023-05-02T07:37:10;7.37;;;2.00;;
71610;SDS011;59459;51.172;6.682;2023-05-02T07:39:36;4.17;;;1.83;;
71610;SDS011;59459;51.172;6.682;2023-05-02T07:42:01;6.37;;;2.27;;
71610;SDS011;59459;51.172;6.682;2023-05-02T07:44:27;6.15;;;2.17;;
71610;SDS011;59459;51.172;6.682;2023-05-02T07:46:52;7.90;;;2.70;;
71610;SDS011;59459;51.172;6.682;2023-05-02T07:49:18;8.17;;;2.47;;
71610;SDS011;59459;51.172;6.682;2023-05-02T07:51:43;10.35;;;2.83;;
71610;SDS011;59459;51.172;6.682;2023-05-02T07:54:14;7.03;;;2.47;;
71610;SDS011;59459;51.172;6.682;2023-05-02T07:56:39;7.70;;;2.00;;
71610;SDS011;59459;51.172;6.682;2023-05-02T07:59:05;9.68;;;2.83;;
71610;SDS011;59459;51.172;6.682;2023-05-02T08:01:30;5.63;;;1.83;;
71610;SDS011;59459;51.172;6.682;2023-05-02T08:03:56;3.73;;;1.40;;
71610;SDS011;59459;51.172;6.682;2023-05-02T08:06:21;3.63;;;1.00;;
71610;SDS011;59459;51.172;6.682;2023-05-02T08:08:46;2.73;;;0.80;;
71610;SDS011;59459;51.172;6.682;2023-05-02T08:11:12;4.07;;;1.10;;
71610;SDS011;59459;51.172;6.682;2023-05-02T08:13:37;4.63;;;1.17;;
71610;SDS011;59459;51.172;6.682;2023-05-02T08:16:02;4.93;;;1.13;;
71610;SDS011;59459;51.172;6.682;2023-05-02T08:18:27;6.33;;;1.03;;
71610;SDS011;59459;51.172;6.682;2023-05-02T08:20:54;8.68;;;1.00;;
71610;SDS011;59459;51.172;6.682;2023-05-02T08:23:19;3.00;;;1.20;;
71610;SDS011;59459;51.172;6.682;2023-05-02T08:25:44;2.73;;;1.00;;
71610;SDS011;59459;51.172;6.682;2023-05-02T08:28:10;4.37;;;1.30;;
71610;SDS011;59459;51.172;6.682;2023-05-02T08:30:35;2.77;;;0.80;;
71610;SDS011;59459;51.172;6.682;2023-05-02T08:33:00;5.00;;;1.10;;
71610;SDS011;59459;51.172;6.682;2023-05-02T08:35:27;6.80;;;1.53;;
71610;SDS011;59459;51.172;6.682;2023-05-02T08:37:53;3.37;;;1.10;;
71610;SDS011;59459;51.172;6.682;2023-05-02T08:40:18;4.00;;;1.37;;
71610;SDS011;59459;51.172;6.682;2023-05-02T08:42:44;8.37;;;1.73;;
71610;SDS011;59459;51.172;6.682;2023-05-02T08:45:10;4.57;;;1.50;;
71610;SDS011;59459;51.172;6.682;2023-05-02T08:47:37;4.53;;;1.83;;
71610;SDS011;59459;51.172;6.682;2023-05-02T08:50:02;6.72;;;1.40;;
71610;SDS011;59459;51.172;6.682;2023-05-02T08:52:28;3.92;;;1.15;;
71610;SDS011;59459;51.172;6.682;2023-05-02T08:54:53;4.50;;;1.47;;
71610;SDS011;59459;51.172;6.682;2023-05-02T08:57:18;6.87;;;1.50;;
71610;SDS011;59459;51.172;6.682;2023-05-02T08:59:46;6.00;;;1.35;;
71610;SDS011;59459;51.172;6.682;2023-05-02T09:02:18;5.43;;;1.45;;
71610;SDS011;59459;51.172;6.682;2023-05-02T09:04:45;10.13;;;2.30;;
71610;SDS011;59459;51.172;6.682;2023-05-02T09:07:13;6.70;;;1.60;;
71610;SDS011;59459;51.172;6.682;2023-05-02T09:09:39;6.10;;;1.92;;
71610;SDS011;59459;51.172;6.682;2023-05-02T09:12:04;6.30;;;2.20;;
71610;SDS011;59459;51.172;6.682;2023-05-02T09:14:29;8.43;;;1.73;;
71610;SDS011;59459;51.172;6.682;2023-05-02T09:16:58;6.90;;;1.90;;
71610;SDS011;59459;51.172;6.682;2023-05-02T09:19:26;5.88;;;2.67;;
71610;SDS011;59459;51.172;6.682;2023-05-02T09:21:51;6.70;;;2.23;;
71610;SDS011;59459;51.172;6.682;2023-05-02T09:24:23;6.57;;;2.63;;
71610;SDS011;59459;51.172;6.682;2023-05-02T09:26:59;8.43;;;2.40;;
71610;SDS011;59459;51.172;6.682;2023-05-02T09:29:25;8.55;;;1.98;;
71610;SDS011;59459;51.172;6.682;2023-05-02T09:31:51;7.00;;;1.80;;
71610;SDS011;59459;51.172;6.682;2023-05-02T09:34:16;6.53;;;1.70;;
71610;SDS011;59459;51.172;6.682;2023-05-02T09:36:43;5.30;;;1.63;;
71610;SDS011;59459;51.172;6.682;2023-05-02T09:39:11;5.65;;;1.70;;
71610;SDS011;59459;51.172;6.682;2023-05-02T09:41:45;5.75;;;1.73;;
71610;SDS011;59459;51.172;6.682;2023-05-02T09:44:13;6.47;;;1.90;;
71610;SDS011;59459;51.172;6.682;2023-05-02T09:46:43;6.70;;;1.70;;
71610;SDS011;59459;51.172;6.682;2023-05-02T09:49:08;5.82;;;1.60;;
71610;SDS011;59459;51.172;6.682;2023-05-02T09:51:34;4.93;;;1.70;;
71610;SDS011;59459;51.172;6.682;2023-05-02T09:53:59;8.00;;;2.28;;
71610;SDS011;59459;51.172;6.682;2023-05-02T09:56:25;6.80;;;2.07;;
71610;SDS011;59459;51.172;6.682;2023-05-02T09:58:50;6.07;;;1.83;;
71610;SDS011;59459;51.172;6.682;2023-05-02T10:01:16;6.73;;;2.50;;
71610;SDS011;59459;51.172;6.682;2023-05-02T10:03:41;6.80;;;2.58;;
71610;SDS011;59459;51.172;6.682;2023-05-02T10:06:10;5.93;;;2.45;;
71610;SDS011;59459;51.172;6.682;2023-05-02T10:08:36;8.07;;;2.80;;
71610;SDS011;59459;51.172;6.682;2023-05-02T10:11:03;8.48;;;2.80;;
71610;SDS011;59459;51.172;6.682;2023-05-02T10:13:31;5.78;;;1.95;;
71610;SDS011;59459;51.172;6.682;2023-05-02T10:15:59;6.45;;;2.70;;
71610;SDS011;59459;51.172;6.682;2023-05-02T10:18:26;4.30;;;2.10;;
71610;SDS011;59459;51.172;6.682;2023-05-02T10:20:54;6.68;;;2.15;;
71610;SDS011;59459;51.172;6.682;2023-05-02T10:23:20;7.90;;;2.42;;
71610;SDS011;59459;51.172;6.682;2023-05-02T10:25:46;4.93;;;2.30;;
71610;SDS011;59459;51.172;6.682;2023-05-02T10:28:11;6.43;;;2.17;;
71610;SDS011;59459;51.172;6.682;2023-05-02T10:30:38;6.70;;;2.13;;
71610;SDS011;59459;51.172;6.682;2023-05-02T10:33:03;7.77;;;2.07;;
71610;SDS011;59459;51.172;6.682;2023-05-02T10:35:29;5.32;;;1.75;;
71610;SDS011;59459;51.172;6.682;2023-05-02T10:37:54;4.60;;;1.80;;
71610;SDS011;59459;51.172;6.682;2023-05-02T10:40:20;5.53;;;1.55;;
71610;SDS011;59459;51.172;6.682;2023-05-02T10:42:46;4.57;;;1.40;;
71610;SDS011;59459;51.172;6.682;2023-05-02T10:47:37;5.30;;;1.43;;
71610;SDS011;59459;51.172;6.682;2023-05-02T10:50:02;3.87;;;1.53;;
71610;SDS011;59459;51.172;6.682;2023-05-02T10:52:30;4.68;;;2.10;;
71610;SDS011;59459;51.172;6.682;2023-05-02T11:00:21;6.93;;;2.30;;
71610;SDS011;59459;51.172;6.682;2023-05-02T11:02:47;4.80;;;1.92;;
71610;SDS011;59459;51.172;6.682;2023-05-02T11:05:15;6.30;;;2.20;;
71610;SDS011;59459;51.172;6.682;2023-05-02T11:07:41;5.35;;;1.70;;
71610;SDS011;59459;51.172;6.682;2023-05-02T11:12:44;6.85;;;1.85;;
71610;SDS011;59459;51.172;6.682;2023-05-02T11:15:10;8.17;;;1.93;;
71610;SDS011;59459;51.172;6.682;2023-05-02T11:20:19;4.60;;;1.73;;
71610;SDS011;59459;51.172;6.682;2023-05-02T11:22:44;4.17;;;2.30;;
71610;SDS011;59459;51.172;6.682;2023-05-02T11:25:27;5.63;;;1.80;;
71610;SDS011;59459;51.172;6.682;2023-05-02T11:27:52;5.75;;;2.03;;
71610;SDS011;59459;51.172;6.682;2023-05-02T11:30:17;6.60;;;2.03;;
71610;SDS011;59459;51.172;6.682;2023-05-02T11:35:28;4.60;;;1.63;;
71610;SDS011;59459;51.172;6.682;2023-05-02T11:40:21;6.37;;;1.60;;
71610;SDS011;59459;51.172;6.682;2023-05-02T11:42:47;3.67;;;1.70;;
71610;SDS011;59459;51.172;6.682;2023-05-02T11:45:13;4.90;;;1.70;;
71610;SDS011;59459;51.172;6.682;2023-05-02T11:47:38;4.65;;;1.40;;
71610;SDS011;59459;51.172;6.682;2023-05-02T11:50:03;5.73;;;1.80;;
71610;SDS011;59459;51.172;6.682;2023-05-02T11:52:29;5.70;;;2.23;;
71610;SDS011;59459;51.172;6.682;2023-05-02T11:54:55;5.28;;;1.75;;
71610;SDS011;59459;51.172;6.682;2023-05-02T11:57:24;5.30;;;2.10;;
71610;SDS011;59459;51.172;6.682;2023-05-02T11:59:52;5.97;;;2.08;;
71610;SDS011;59459;51.172;6.682;2023-05-02T12:02:18;8.07;;;2.17;;
71610;SDS011;59459;51.172;6.682;2023-05-02T12:04:44;4.80;;;1.83;;
71610;SDS011;59459;51.172;6.682;2023-05-02T12:07:09;3.80;;;1.60;;
71610;SDS011;59459;51.172;6.682;2023-05-02T12:09:34;4.90;;;1.60;;
71610;SDS011;59459;51.172;6.682;2023-05-02T12:12:00;8.70;;;2.00;;
71610;SDS011;59459;51.172;6.682;2023-05-02T12:14:27;5.13;;;1.58;;
71610;SDS011;59459;51.172;6.682;2023-05-02T12:16:53;4.20;;;1.58;;
71610;SDS011;59459;51.172;6.682;2023-05-02T12:19:18;5.37;;;2.20;;
71610;SDS011;59459;51.172;6.682;2023-05-02T12:21:44;3.60;;;1.70;;
71610;SDS011;59459;51.172;6.682;2023-05-02T12:24:09;3.88;;;1.77;;
71610;SDS011;59459;51.172;6.682;2023-05-02T12:26:35;3.67;;;1.67;;
71610;SDS011;59459;51.172;6.682;2023-05-02T12:29:01;5.13;;;1.90;;
71610;SDS011;59459;51.172;6.682;2023-05-02T12:31:26;5.03;;;1.60;;
71610;SDS011;59459;51.172;6.682;2023-05-02T12:33:54;6.88;;;1.80;;
71610;SDS011;59459;51.172;6.682;2023-05-02T12:36:21;5.80;;;2.03;;
71610;SDS011;59459;51.172;6.682;2023-05-02T12:38:53;4.50;;;2.03;;
71610;SDS011;59459;51.172;6.682;2023-05-02T12:41:33;4.80;;;1.73;;
71610;SDS011;59459;51.172;6.682;2023-05-02T12:43:59;4.22;;;1.73;;
71610;SDS011;59459;51.172;6.682;2023-05-02T12:46:24;6.13;;;1.83;;
71610;SDS011;59459;51.172;6.682;2023-05-02T12:49:04;5.50;;;1.85;;
71610;SDS011;59459;51.172;6.682;2023-05-02T12:51:32;6.07;;;1.77;;
71610;SDS011;59459;51.172;6.682;2023-05-02T12:53:58;5.68;;;1.60;;
71610;SDS011;59459;51.172;6.682;2023-05-02T12:56:23;5.90;;;2.10;;
71610;SDS011;59459;51.172;6.682;2023-05-02T12:58:51;4.88;;;1.80;;
71610;SDS011;59459;51.172;6.682;2023-05-02T13:01:16;4.43;;;2.10;;
71610;SDS011;59459;51.172;6.682;2023-05-02T13:03:42;4.23;;;2.07;;
71610;SDS011;59459;51.172;6.682;2023-05-02T13:06:07;4.40;;;1.67;;
71610;SDS011;59459;51.172;6.682;2023-05-02T13:08:33;5.70;;;2.27;;
71610;SDS011;59459;51.172;6.682;2023-05-02T13:10:58;6.07;;;2.00;;
71610;SDS011;59459;51.172;6.682;2023-05-02T13:13:23;6.10;;;2.05;;
71610;SDS011;59459;51.172;6.682;2023-05-02T13:15:49;5.13;;;1.87;;
71610;SDS011;59459;51.172;6.682;2023-05-02T13:18:14;5.00;;;1.80;;
71610;SDS011;59459;51.172;6.682;2023-05-02T13:20:39;6.57;;;2.23;;
71610;SDS011;59459;51.172;6.682;2023-05-02T13:23:04;5.20;;;2.27;;
71610;SDS011;59459;51.172;6.682;2023-05-02T13:25:30;4.70;;;1.53;;
71610;SDS011;59459;51.172;6.682;2023-05-02T13:27:55;4.67;;;1.90;;
71610;SDS011;59459;51.172;6.682;2023-05-02T13:30:20;6.53;;;2.27;;
71610;SDS011;59459;51.172;6.682;2023-05-02T13:32:45;4.00;;;1.80;;
71610;SDS011;59459;51.172;6.682;2023-05-02T13:35:11;5.03;;;2.20;;
71610;SDS011;59459;51.172;6.682;2023-05-02T13:37:39;5.63;;;1.95;;
71610;SDS011;59459;51.172;6.682;2023-05-02T13:40:05;5.30;;;1.80;;
71610;SDS011;59459;51.172;6.682;2023-05-02T13:42:31;5.88;;;2.13;;
71610;SDS011;59459;51.172;6.682;2023-05-02T13:44:56;5.60;;;1.90;;
71610;SDS011;59459;51.172;6.682;2023-05-02T13:47:21;4.97;;;1.63;;
71610;SDS011;59459;51.172;6.682;2023-05-02T13:49:47;4.17;;;1.77;;
71610;SDS011;59459;51.172;6.682;2023-05-02T13:52:12;6.20;;;1.63;;
71610;SDS011;59459;51.172;6.682;2023-05-02T13:54:37;4.17;;;1.73;;
71610;SDS011;59459;51.172;6.682;2023-05-02T13:57:02;5.23;;;1.97;;
71610;SDS011;59459;51.172;6.682;2023-05-02T13:59:29;5.28;;;1.70;;
71610;SDS011;59459;51.172;6.682;2023-05-02T14:01:54;4.47;;;1.50;;
71610;SDS011;59459;51.172;6.682;2023-05-02T14:04:20;5.30;;;1.75;;
71610;SDS011;59459;51.172;6.682;2023-05-02T14:06:45;6.10;;;1.93;;
71610;SDS011;59459;51.172;6.682;2023-05-02T14:09:10;2.97;;;1.30;;
71610;SDS011;59459;51.172;6.682;2023-05-02T14:11:36;4.87;;;1.90;;
71610;SDS011;59459;51.172;6.682;2023-05-02T14:14:01;3.10;;;1.80;;
71610;SDS011;59459;51.172;6.682;2023-05-02T14:16:26;4.50;;;1.87;;
71610;SDS011;59459;51.172;6.682;2023-05-02T14:18:52;6.53;;;1.90;;
71610;SDS011;59459;51.172;6.682;2023-05-02T14:21:18;4.53;;;2.00;;
71610;SDS011;59459;51.172;6.682;2023-05-02T14:23:43;4.87;;;1.77;;
71610;SDS011;59459;51.172;6.682;2023-05-02T14:26:09;5.03;;;1.83;;
71610;SDS011;59459;51.172;6.682;2023-05-02T14:28:34;4.70;;;1.63;;
71610;SDS011;59459;51.172;6.682;2023-05-02T14:30:59;4.83;;;2.03;;
71610;SDS011;59459;51.172;6.682;2023-05-02T14:33:24;4.63;;;1.92;;
71610;SDS011;59459;51.172;6.682;2023-05-02T14:35:51;5.43;;;1.70;;
71610;SDS011;59459;51.172;6.682;2023-05-02T14:38:16;4.47;;;2.00;;
71610;SDS011;59459;51.172;6.682;2023-05-02T14:40:41;4.73;;;2.13;;
71610;SDS011;59459;51.172;6.682;2023-05-02T14:43:06;4.33;;;1.67;;
71610;SDS011;59459;51.172;6.682;2023-05-02T14:45:32;5.27;;;1.77;;
71610;SDS011;59459;51.172;6.682;2023-05-02T14:47:57;6.07;;;1.73;;
71610;SDS011;59459;51.172;6.682;2023-05-02T14:50:22;7.03;;;2.17;;
71610;SDS011;59459;51.172;6.682;2023-05-02T14:52:48;4.90;;;1.80;;
71610;SDS011;59459;51.172;6.682;2023-05-02T14:55:13;5.50;;;2.13;;
71610;SDS011;59459;51.172;6.682;2023-05-02T14:57:38;5.67;;;2.10;;
71610;SDS011;59459;51.172;6.682;2023-05-02T15:00:04;6.20;;;1.93;;
71610;SDS011;59459;51.172;6.682;2023-05-02T15:02:31;9.40;;;2.10;;
71610;SDS011;59459;51.172;6.682;2023-05-02T15:04:57;5.13;;;2.17;;
71610;SDS011;59459;51.172;6.682;2023-05-02T15:07:22;5.23;;;2.10;;
71610;SDS011;59459;51.172;6.682;2023-05-02T15:09:47;5.37;;;1.93;;
71610;SDS011;59459;51.172;6.682;2023-05-02T15:12:12;5.40;;;2.13;;
71610;SDS011;59459;51.172;6.682;2023-05-02T15:14:37;6.87;;;1.97;;